Time;durP1;ratioP1;P1;durP2;ratioP2;P2;SDS_P1;SDS_P2;PMS_P1;PMS_P2;Temp;Humidity;BMP_temperature;BMP_pressure;BME280_temperature;BME280_humidity;BME280_pressure;Samples;Min_cycle;Max_cycle;Signal;HPM_P1;HPM_P2
2023/12/30 00:01:21;;;;;;;24.08;10.43;;;12.00;67.90;;;;;;7782372;22;20072;-77
2023/12/30 00:04:22;;;;;;;16.80;8.75;;;12.00;68.40;;;;;;7782567;22;20003;-76
2023/12/30 00:07:24;;;;;;;27.80;10.30;;;11.90;68.70;;;;;;7810562;22;20501;-76
2023/12/30 00:10:25;;;;;;;21.30;10.70;;;11.80;68.90;;;;;;7783235;22;20013;-76
2023/12/30 00:13:26;;;;;;;20.83;9.88;;;11.80;69.00;;;;;;7784393;22;20310;-76
2023/12/30 00:16:28;;;;;;;25.77;9.70;;;11.80;69.10;;;;;;7757804;22;20410;-76
2023/12/30 00:19:29;;;;;;;20.63;10.25;;;11.80;69.10;;;;;;7758005;22;20027;-76
2023/12/30 00:22:30;;;;;;;24.38;10.23;;;11.80;69.30;;;;;;7782801;22;19999;-76
2023/12/30 00:25:31;;;;;;;23.58;10.23;;;11.70;69.30;;;;;;7758029;22;20060;-77
2023/12/30 00:28:32;;;;;;;24.08;11.07;;;11.70;69.50;;;;;;7782352;22;20006;-76
2023/12/30 00:31:33;;;;;;;23.33;9.57;;;11.70;69.50;;;;;;7783191;22;20496;-77
2023/12/30 00:34:34;;;;;;;23.42;8.43;;;11.70;69.70;;;;;;7782333;22;20003;-76
2023/12/30 00:37:35;;;;;;;20.70;8.52;;;11.70;69.90;;;;;;7781875;22;20007;-76
2023/12/30 00:40:35;;;;;;;21.60;10.93;;;11.70;70.10;;;;;;7783645;22;20137;-76
2023/12/30 00:43:37;;;;;;;21.10;10.23;;;11.70;70.10;;;;;;7783330;22;20550;-77
2023/12/30 00:46:38;;;;;;;24.42;10.25;;;11.60;70.10;;;;;;7811550;22;20011;-77
2023/12/30 00:49:38;;;;;;;21.92;9.95;;;11.70;70.10;;;;;;7782507;22;20048;-78
2023/12/30 00:52:40;;;;;;;23.30;11.25;;;11.60;70.00;;;;;;7810711;22;20052;-75
2023/12/30 00:55:42;;;;;;;16.73;8.70;;;11.60;69.90;;;;;;7757641;22;20011;-76
2023/12/30 00:58:43;;;;;;;28.40;10.02;;;11.60;69.70;;;;;;7757345;22;20113;-77
2023/12/30 01:01:44;;;;;;;22.27;9.68;;;11.60;69.70;;;;;;7782223;22;20369;-76
2023/12/30 01:04:45;;;;;;;24.25;10.40;;;11.70;69.60;;;;;;7782713;22;20022;-77
2023/12/30 01:07:46;;;;;;;25.27;10.38;;;11.70;69.50;;;;;;7783254;22;19991;-76
2023/12/30 01:10:47;;;;;;;27.88;11.02;;;11.70;69.40;;;;;;7757297;22;20003;-76
2023/12/30 01:13:48;;;;;;;23.60;9.13;;;11.70;69.20;;;;;;7783494;22;20033;-76
2023/12/30 01:16:49;;;;;;;23.45;10.30;;;11.70;69.20;;;;;;7781872;22;20011;-75
2023/12/30 01:19:51;;;;;;;21.83;9.68;;;11.60;69.10;;;;;;7756760;22;20015;-75
2023/12/30 01:22:52;;;;;;;22.10;9.32;;;11.70;69.20;;;;;;7756483;22;20009;-76
2023/12/30 01:25:54;;;;;;;21.77;10.10;;;11.60;69.10;;;;;;7781249;22;20003;-77
2023/12/30 01:28:55;;;;;;;19.52;10.32;;;11.60;69.10;;;;;;7781762;22;20078;-77
2023/12/30 01:31:56;;;;;;;24.10;10.85;;;11.60;69.20;;;;;;7757176;22;20031;-76
2023/12/30 01:34:56;;;;;;;25.08;10.25;;;11.60;69.20;;;;;;7755729;22;20011;-76
2023/12/30 01:37:57;;;;;;;18.38;9.07;;;11.60;69.20;;;;;;7809674;22;20459;-76
2023/12/30 01:40:59;;;;;;;22.65;8.02;;;11.60;69.10;;;;;;7755279;22;20516;-76
2023/12/30 01:44:02;;;;;;;18.13;8.82;;;11.60;69.10;;;;;;7781728;22;20010;-76
2023/12/30 01:47:05;;;;;;;16.80;8.55;;;11.60;69.10;;;;;;7781582;22;20056;-77
2023/12/30 01:50:08;;;;;;;18.05;8.90;;;11.60;69.10;;;;;;7782311;22;20058;-76
2023/12/30 01:53:10;;;;;;;23.88;8.85;;;11.60;69.10;;;;;;7781891;22;20011;-76
2023/12/30 01:56:12;;;;;;;23.67;9.55;;;11.60;69.10;;;;;;7756284;22;20027;-77
2023/12/30 01:59:15;;;;;;;17.38;8.52;;;11.60;69.00;;;;;;7756342;22;20019;-77
2023/12/30 02:02:16;;;;;;;18.08;8.60;;;11.60;68.90;;;;;;7756930;22;20064;-76
2023/12/30 02:05:17;;;;;;;15.18;8.93;;;11.60;68.90;;;;;;7782299;22;20006;-76
2023/12/30 02:08:18;;;;;;;15.38;8.27;;;11.60;68.90;;;;;;7781803;22;20082;-77
2023/12/30 02:11:20;;;;;;;19.92;8.98;;;11.60;68.90;;;;;;7756163;22;20007;-75
2023/12/30 02:14:27;;;;;;;20.08;8.45;;;11.50;68.90;;;;;;7782819;22;20017;-76
2023/12/30 02:17:30;;;;;;;28.75;11.40;;;11.50;69.00;;;;;;7782799;22;20011;-77
2023/12/30 02:20:33;;;;;;;24.20;9.82;;;11.50;69.00;;;;;;7781847;22;20011;-78
2023/12/30 02:23:34;;;;;;;27.73;11.07;;;11.50;69.00;;;;;;7781983;22;20011;-77
2023/12/30 02:26:36;;;;;;;26.80;9.38;;;11.40;69.00;;;;;;7810238;22;20095;-76
2023/12/30 02:29:38;;;;;;;21.75;10.05;;;11.30;68.90;;;;;;7758344;22;20086;-77
2023/12/30 02:32:40;;;;;;;21.15;9.85;;;11.40;68.90;;;;;;7813498;22;20003;-76
2023/12/30 02:35:47;;;;;;;19.20;8.75;;;11.40;68.80;;;;;;7759499;22;20010;-75
2023/12/30 02:38:49;;;;;;;22.23;9.35;;;11.40;68.70;;;;;;7758347;22;20007;-76
2023/12/30 02:41:49;;;;;;;22.73;9.98;;;11.30;68.70;;;;;;7756888;22;20397;-77
2023/12/30 02:44:52;;;;;;;18.00;9.20;;;11.30;68.80;;;;;;7784214;22;20108;-77
2023/12/30 02:47:52;;;;;;;25.38;9.85;;;11.30;68.90;;;;;;7758561;22;20137;-76
2023/12/30 02:50:53;;;;;;;24.95;9.93;;;11.30;68.80;;;;;;7811973;22;20332;-78
2023/12/30 02:53:56;;;;;;;17.95;9.20;;;11.30;68.90;;;;;;7811496;22;20025;-76
2023/12/30 02:56:57;;;;;;;21.02;9.80;;;11.30;68.90;;;;;;7758939;22;20007;-77
2023/12/30 02:59:58;;;;;;;18.70;9.13;;;11.30;68.90;;;;;;7784987;22;20107;-77
2023/12/30 03:02:59;;;;;;;19.20;7.85;;;11.30;69.00;;;;;;7758532;22;20556;-76
2023/12/30 03:06:00;;;;;;;26.50;7.63;;;11.30;69.10;;;;;;7783341;22;19996;-77
2023/12/30 03:09:02;;;;;;;16.40;7.93;;;11.20;68.90;;;;;;7784102;22;20315;-75
2023/12/30 03:12:03;;;;;;;18.48;7.80;;;11.20;68.70;;;;;;7783967;22;20459;-77
2023/12/30 03:15:04;;;;;;;19.02;6.85;;;11.20;68.60;;;;;;7784034;22;20003;-75
2023/12/30 03:18:05;;;;;;;17.90;6.82;;;11.20;68.50;;;;;;7758264;22;20156;-78
2023/12/30 03:21:08;;;;;;;15.95;6.63;;;11.10;68.40;;;;;;7757549;22;20417;-76
2023/12/30 03:24:08;;;;;;;21.70;7.97;;;11.00;68.20;;;;;;7810186;22;20021;-77
2023/12/30 03:27:09;;;;;;;12.80;6.80;;;11.00;68.30;;;;;;7757932;22;20314;-76
2023/12/30 03:30:11;;;;;;;14.43;7.40;;;10.90;68.20;;;;;;7757327;22;20007;-77
2023/12/30 03:33:11;;;;;;;14.95;7.65;;;10.90;68.40;;;;;;7758139;22;20086;-75
2023/12/30 03:36:12;;;;;;;24.15;8.77;;;10.80;68.40;;;;;;7783875;22;20113;-75
2023/12/30 03:39:14;;;;;;;18.38;7.63;;;10.80;68.50;;;;;;7811035;22;20101;-76
2023/12/30 03:42:14;;;;;;;15.35;7.65;;;10.70;68.60;;;;;;7783175;22;20083;-76
2023/12/30 03:45:16;;;;;;;18.60;7.95;;;10.70;68.60;;;;;;7732954;22;20006;-76
2023/12/30 03:48:18;;;;;;;16.38;7.45;;;10.70;68.70;;;;;;7758390;22;20026;-76
2023/12/30 03:51:20;;;;;;;16.05;7.50;;;10.70;68.70;;;;;;7783973;22;20401;-77
2023/12/30 03:54:22;;;;;;;13.02;6.10;;;10.70;68.80;;;;;;7758416;22;20041;-76
2023/12/30 03:57:23;;;;;;;10.18;5.10;;;10.70;68.80;;;;;;7783077;22;20102;-77
2023/12/30 04:00:24;;;;;;;14.15;5.82;;;10.60;68.70;;;;;;7758641;22;20026;-77
2023/12/30 04:03:25;;;;;;;11.90;4.80;;;10.70;68.70;;;;;;7811480;22;20345;-77
2023/12/30 04:06:26;;;;;;;14.00;4.63;;;10.70;68.60;;;;;;7758348;22;20007;-77
2023/12/30 04:09:27;;;;;;;10.93;5.13;;;10.70;68.50;;;;;;7783177;22;20076;-76
2023/12/30 04:12:35;;;;;;;9.82;5.10;;;10.70;68.50;;;;;;7757560;22;20279;-77
2023/12/30 04:15:36;;;;;;;10.18;4.65;;;10.70;68.30;;;;;;7757360;22;20315;-77
2023/12/30 04:18:38;;;;;;;11.52;4.47;;;10.80;68.20;;;;;;7758757;22;20428;-77
2023/12/30 04:21:39;;;;;;;10.05;4.65;;;10.80;68.10;;;;;;7785304;22;20022;-77
2023/12/30 04:24:40;;;;;;;8.68;4.15;;;10.80;68.00;;;;;;7784181;22;19995;-77
2023/12/30 04:27:42;;;;;;;6.53;3.75;;;10.80;67.90;;;;;;7811674;22;19991;-76
2023/12/30 04:30:44;;;;;;;13.23;5.10;;;10.80;67.80;;;;;;7782333;22;20010;-76
2023/12/30 04:33:45;;;;;;;11.88;4.82;;;10.80;67.70;;;;;;7782720;22;20420;-77
2023/12/30 04:36:46;;;;;;;8.63;4.50;;;10.80;67.60;;;;;;7783093;22;20006;-77
2023/12/30 04:39:47;;;;;;;11.50;4.43;;;10.70;67.40;;;;;;7783595;22;20007;-77
2023/12/30 04:42:48;;;;;;;8.63;4.18;;;10.70;68.00;;;;;;7782698;22;20000;-76
2023/12/30 04:45:50;;;;;;;10.30;5.05;;;10.70;67.10;;;;;;7756533;22;20040;-77
2023/12/30 04:48:52;;;;;;;9.77;4.60;;;10.70;66.90;;;;;;7756327;22;20078;-76
2023/12/30 04:51:53;;;;;;;16.60;4.65;;;10.60;66.90;;;;;;7757839;22;20003;-77
2023/12/30 04:54:57;;;;;;;8.63;4.28;;;10.60;66.90;;;;;;7730453;22;20337;-76
2023/12/30 04:57:58;;;;;;;11.70;5.45;;;10.50;66.80;;;;;;7756715;22;20668;-76
2023/12/30 05:00:59;;;;;;;9.70;4.97;;;10.40;66.80;;;;;;7782962;22;20010;-77
2023/12/30 05:04:01;;;;;;;12.65;4.90;;;10.40;66.90;;;;;;7780739;22;19999;-76
2023/12/30 05:07:02;;;;;;;9.18;4.88;;;10.40;66.90;;;;;;7756592;22;20011;-76
2023/12/30 05:10:03;;;;;;;11.88;5.25;;;10.40;67.10;;;;;;7756849;22;20086;-76
2023/12/30 05:13:05;;;;;;;8.77;4.88;;;10.40;67.00;;;;;;7756691;22;20003;-77
2023/12/30 05:16:06;;;;;;;7.28;4.03;;;10.40;67.10;;;;;;7781239;22;20382;-76
2023/12/30 05:19:07;;;;;;;6.25;3.72;;;10.40;67.00;;;;;;7783054;22;20124;-75
2023/12/30 05:22:08;;;;;;;8.77;4.28;;;10.40;67.00;;;;;;7757901;22;20106;-77
2023/12/30 05:25:09;;;;;;;10.02;4.22;;;10.40;67.10;;;;;;7757063;22;20282;-76
2023/12/30 05:28:11;;;;;;;13.88;4.68;;;10.40;66.90;;;;;;7781735;22;20103;-76
2023/12/30 05:31:13;;;;;;;10.32;4.75;;;10.40;66.80;;;;;;7756593;22;20305;-75
2023/12/30 05:34:14;;;;;;;10.25;4.60;;;10.30;66.80;;;;;;7756212;22;20015;-75
2023/12/30 05:37:14;;;;;;;11.40;5.18;;;10.30;66.90;;;;;;7756283;22;20092;-75
2023/12/30 05:40:16;;;;;;;15.00;5.57;;;10.30;66.90;;;;;;7783082;22;20087;-76
2023/12/30 05:43:17;;;;;;;10.77;6.45;;;10.30;67.00;;;;;;7810324;22;20029;-74
2023/12/30 05:46:18;;;;;;;12.38;5.90;;;10.20;67.10;;;;;;7783419;22;20129;-75
2023/12/30 05:49:18;;;;;;;11.40;6.00;;;10.20;67.20;;;;;;7756916;22;20125;-77
2023/12/30 05:52:19;;;;;;;11.07;5.80;;;10.10;67.30;;;;;;7783517;22;20512;-75
2023/12/30 05:55:20;;;;;;;11.75;5.53;;;10.10;67.40;;;;;;7810753;22;20065;-76
2023/12/30 05:58:21;;;;;;;12.30;7.38;;;10.10;67.40;;;;;;7781530;22;20086;-76
2023/12/30 06:01:22;;;;;;;11.48;5.72;;;10.10;67.50;;;;;;7810714;22;20027;-77
2023/12/30 06:04:23;;;;;;;17.27;5.95;;;10.10;67.70;;;;;;7758039;22;20003;-76
2023/12/30 06:07:24;;;;;;;11.40;6.05;;;10.10;67.60;;;;;;7760508;22;20003;-77
2023/12/30 06:10:25;;;;;;;10.50;6.07;;;10.10;67.60;;;;;;7784220;22;20012;-78
2023/12/30 06:13:26;;;;;;;14.85;6.03;;;10.00;67.70;;;;;;7785655;22;20034;-74
2023/12/30 06:16:28;;;;;;;12.35;5.75;;;10.20;67.90;;;;;;7785453;22;20420;-75
2023/12/30 06:19:33;;;;;;;10.60;5.22;;;10.10;67.80;;;;;;7813390;22;19999;-77
2023/12/30 06:22:34;;;;;;;10.82;5.22;;;10.10;67.80;;;;;;7759758;22;20463;-77
2023/12/30 06:25:35;;;;;;;12.43;6.50;;;10.20;67.80;;;;;;7760673;22;20007;-77
2023/12/30 06:28:35;;;;;;;6.70;3.55;;;10.10;67.70;;;;;;7783779;22;20002;-77
2023/12/30 06:31:41;;;;;;;4.93;3.30;;;10.10;67.60;;;;;;7784672;22;20003;-77
2023/12/30 06:34:42;;;;;;;6.93;3.90;;;10.10;67.20;;;;;;7758866;22;20003;-76
2023/12/30 06:37:43;;;;;;;4.93;3.30;;;9.90;67.00;;;;;;7784473;22;20022;-76
2023/12/30 06:40:47;;;;;;;7.22;3.35;;;10.10;67.10;;;;;;7784125;22;20017;-76
2023/12/30 06:43:48;;;;;;;7.32;3.13;;;10.10;66.90;;;;;;7759520;22;20393;-77
2023/12/30 06:46:50;;;;;;;5.15;3.05;;;10.00;66.50;;;;;;7784364;22;20044;-77
2023/12/30 06:49:51;;;;;;;5.85;3.03;;;10.00;66.40;;;;;;7782696;22;20007;-77
2023/12/30 06:52:55;;;;;;;13.05;3.00;;;10.00;66.50;;;;;;7785116;22;20061;-76
2023/12/30 06:56:00;;;;;;;7.50;3.45;;;9.90;66.40;;;;;;7784562;22;19999;-78
2023/12/30 06:59:01;;;;;;;7.07;3.00;;;9.90;66.30;;;;;;7758042;22;20079;-76
2023/12/30 07:02:02;;;;;;;27.90;4.97;;;9.90;66.40;;;;;;7784760;22;20441;-76
2023/12/30 07:05:03;;;;;;;8.18;4.85;;;9.90;66.40;;;;;;7812068;22;20003;-76
2023/12/30 07:08:05;;;;;;;12.07;5.53;;;9.90;66.30;;;;;;7784462;22;20006;-75
2023/12/30 07:11:06;;;;;;;12.68;6.40;;;9.90;66.40;;;;;;7810896;22;20003;-74
2023/12/30 07:14:08;;;;;;;9.80;5.47;;;9.80;66.70;;;;;;7782283;22;20023;-76
2023/12/30 07:17:09;;;;;;;11.90;6.18;;;9.80;66.80;;;;;;7758562;22;20092;-76
2023/12/30 07:20:10;;;;;;;12.35;6.55;;;9.80;66.90;;;;;;7782318;22;20004;-75
2023/12/30 07:23:11;;;;;;;12.20;5.97;;;9.80;67.10;;;;;;7783952;22;20004;-77
2023/12/30 07:26:12;;;;;;;20.00;5.68;;;9.70;67.20;;;;;;7784405;22;20014;-75
2023/12/30 07:29:13;;;;;;;19.65;7.75;;;9.70;67.10;;;;;;7783301;22;20003;-75
2023/12/30 07:32:14;;;;;;;12.65;6.78;;;9.60;67.30;;;;;;7758072;22;20431;-76
2023/12/30 07:35:15;;;;;;;17.40;6.85;;;9.50;67.70;;;;;;7757408;22;20014;-76
2023/12/30 07:38:16;;;;;;;13.93;7.15;;;9.50;67.90;;;;;;7757068;22;20059;-75
2023/12/30 07:41:17;;;;;;;12.63;5.72;;;9.40;68.10;;;;;;7783287;22;20381;-77
2023/12/30 07:44:18;;;;;;;13.18;6.32;;;9.40;68.30;;;;;;7757726;22;20417;-75
2023/12/30 07:47:21;;;;;;;11.98;5.88;;;9.40;68.40;;;;;;7757652;22;20042;-76
2023/12/30 07:50:22;;;;;;;12.98;6.85;;;9.40;68.50;;;;;;7782527;22;20034;-72
2023/12/30 07:53:23;;;;;;;12.10;6.18;;;9.50;68.40;;;;;;7783814;22;20007;-72
2023/12/30 07:56:24;;;;;;;12.60;6.22;;;9.60;68.40;;;;;;7782378;22;20025;-73
2023/12/30 07:59:25;;;;;;;15.32;6.38;;;9.60;68.40;;;;;;7782579;22;19999;-73
2023/12/30 08:02:28;;;;;;;16.30;6.93;;;9.70;68.50;;;;;;7757245;22;20015;-73
2023/12/30 08:05:29;;;;;;;15.48;7.00;;;9.80;68.40;;;;;;7810937;22;19999;-74
2023/12/30 08:08:30;;;;;;;13.30;5.75;;;9.90;68.20;;;;;;7782052;22;19998;-73
2023/12/30 08:11:31;;;;;;;11.32;5.70;;;10.00;68.30;;;;;;7809220;22;20057;-73
2023/12/30 08:14:34;;;;;;;16.17;7.05;;;10.10;68.00;;;;;;7782605;22;20009;-74
2023/12/30 08:17:34;;;;;;;11.55;6.25;;;10.10;67.80;;;;;;7757101;22;20441;-74
2023/12/30 08:20:37;;;;;;;14.13;6.15;;;10.10;67.30;;;;;;7810009;22;20014;-73
2023/12/30 08:23:38;;;;;;;10.63;5.80;;;10.10;67.20;;;;;;7782686;22;20336;-72
2023/12/30 08:26:39;;;;;;;11.13;5.72;;;10.10;67.30;;;;;;7781683;22;19999;-75
2023/12/30 08:29:40;;;;;;;12.18;6.05;;;10.10;67.10;;;;;;7782374;22;20007;-73
2023/12/30 08:32:40;;;;;;;9.18;4.68;;;10.10;66.90;;;;;;7757063;22;20015;-73
2023/12/30 08:35:41;;;;;;;11.80;5.90;;;10.10;66.70;;;;;;7809591;22;20003;-73
2023/12/30 08:38:42;;;;;;;11.27;5.65;;;10.10;66.70;;;;;;7781136;22;20006;-75
2023/12/30 08:41:43;;;;;;;12.93;5.13;;;10.10;66.70;;;;;;7809954;22;20015;-76
2023/12/30 08:44:45;;;;;;;13.15;6.30;;;10.20;67.10;;;;;;7810824;22;20014;-74
2023/12/30 08:47:47;;;;;;;11.00;5.00;;;10.20;67.20;;;;;;7781555;22;20033;-75
2023/12/30 08:50:48;;;;;;;11.45;5.35;;;10.30;67.00;;;;;;7781344;22;19999;-74
2023/12/30 08:53:49;;;;;;;10.20;5.65;;;10.30;66.60;;;;;;7755783;22;20011;-74
2023/12/30 08:56:53;;;;;;;12.88;6.35;;;10.30;66.30;;;;;;7808765;22;20010;-77
2023/12/30 08:59:54;;;;;;;11.05;4.93;;;10.30;65.90;;;;;;7756805;22;20011;-77
2023/12/30 09:02:56;;;;;;;12.55;6.05;;;10.20;66.00;;;;;;7810341;22;20006;-74
2023/12/30 09:05:58;;;;;;;11.43;5.75;;;10.20;66.20;;;;;;7732221;22;20008;-77
2023/12/30 09:08:59;;;;;;;11.32;5.97;;;10.30;66.10;;;;;;7783758;22;19995;-76
2023/12/30 09:12:00;;;;;;;12.68;6.70;;;10.20;66.00;;;;;;7782997;22;20029;-76
2023/12/30 09:15:01;;;;;;;17.25;7.90;;;10.20;66.00;;;;;;7781691;22;20014;-75
2023/12/30 09:18:03;;;;;;;14.18;5.68;;;10.10;66.00;;;;;;7780060;22;20007;-75
2023/12/30 09:21:04;;;;;;;13.73;6.75;;;10.10;66.20;;;;;;7780454;22;20102;-76
2023/12/30 09:24:10;;;;;;;16.20;7.72;;;10.20;66.50;;;;;;7810143;22;20366;-77
2023/12/30 09:27:11;;;;;;;15.10;7.05;;;10.10;66.40;;;;;;7780712;22;20418;-73
2023/12/30 09:30:13;;;;;;;12.40;6.32;;;10.20;66.70;;;;;;7779498;22;20117;-74
2023/12/30 09:33:15;;;;;;;17.95;7.28;;;10.20;66.80;;;;;;7781628;22;20014;-74
2023/12/30 09:36:17;;;;;;;21.85;9.73;;;10.20;66.90;;;;;;7781700;22;20328;-76
2023/12/30 09:39:18;;;;;;;16.27;7.55;;;10.30;67.00;;;;;;7783365;22;20119;-75
2023/12/30 09:42:19;;;;;;;14.95;6.95;;;10.30;67.00;;;;;;7759142;22;20015;-75
2023/12/30 09:45:21;;;;;;;14.07;7.55;;;10.40;66.90;;;;;;7784350;22;20374;-75
2023/12/30 09:48:26;;;;;;;14.02;6.95;;;10.40;66.70;;;;;;7811590;22;20056;-74
2023/12/30 09:51:31;;;;;;;13.80;7.65;;;10.50;66.80;;;;;;7758391;22;20042;-75
2023/12/30 09:54:34;;;;;;;13.25;7.18;;;10.50;66.70;;;;;;7785023;22;20104;-74
2023/12/30 09:57:35;;;;;;;11.30;6.22;;;10.60;66.90;;;;;;7758544;22;20008;-76
2023/12/30 10:00:40;;;;;;;19.40;7.55;;;10.60;67.10;;;;;;7758302;22;20431;-76
2023/12/30 10:03:41;;;;;;;18.20;8.13;;;10.60;67.30;;;;;;7811708;22;20011;-77
2023/12/30 10:06:44;;;;;;;19.10;7.63;;;10.70;67.10;;;;;;7811998;22;20093;-75
2023/12/30 10:09:45;;;;;;;25.63;9.30;;;10.70;67.40;;;;;;7758179;22;19999;-74
2023/12/30 10:12:47;;;;;;;18.48;9.25;;;11.00;67.70;;;;;;7784813;22;19999;-76
2023/12/30 10:15:52;;;;;;;22.42;9.65;;;11.20;67.40;;;;;;7811826;22;20324;-77
2023/12/30 10:18:56;;;;;;;23.55;10.20;;;11.40;66.90;;;;;;7812124;22;19995;-76
2023/12/30 10:21:57;;;;;;;32.67;10.52;;;11.50;66.50;;;;;;7784314;22;20105;-75
2023/12/30 10:24:58;;;;;;;24.67;10.57;;;11.60;66.60;;;;;;7811367;22;20001;-77
2023/12/30 10:28:01;;;;;;;28.67;12.27;;;11.70;66.60;;;;;;7782682;22;20007;-77
2023/12/30 10:31:06;;;;;;;28.15;12.00;;;11.90;67.40;;;;;;7757155;22;20388;-75
2023/12/30 10:34:07;;;;;;;29.23;12.77;;;12.10;66.30;;;;;;7757778;22;20014;-76
2023/12/30 10:37:10;;;;;;;26.88;12.05;;;12.40;65.80;;;;;;7783205;22;20298;-77
2023/12/30 10:40:11;;;;;;;21.67;10.73;;;12.70;65.10;;;;;;7782914;22;20090;-77
2023/12/30 10:43:12;;;;;;;25.88;10.40;;;12.90;64.20;;;;;;7784013;22;20018;-76
2023/12/30 10:46:13;;;;;;;27.17;11.40;;;13.20;63.80;;;;;;7784263;22;19999;-77
2023/12/30 10:49:21;;;;;;;24.30;10.07;;;13.50;63.50;;;;;;7759100;22;21511;-78
2023/12/30 10:52:24;;;;;;;;;;;13.90;62.20;;;;;;7785515;22;20053;-77
2023/12/30 10:55:30;;;;;;;21.88;10.55;;;14.30;60.10;;;;;;7810632;22;20348;-77
2023/12/30 10:58:37;;;;;;;21.40;9.25;;;14.50;59.40;;;;;;7783252;22;20031;-77
2023/12/30 11:01:40;;;;;;;20.85;9.63;;;14.60;58.50;;;;;;7757912;22;20015;-76
2023/12/30 11:04:42;;;;;;;20.88;9.80;;;15.00;58.20;;;;;;7758381;22;20403;-78
2023/12/30 11:07:44;;;;;;;21.75;10.23;;;15.50;57.30;;;;;;7784879;22;20112;-79
2023/12/30 11:10:46;;;;;;;22.08;10.15;;;16.10;56.20;;;;;;7811277;22;20014;-79
2023/12/30 11:13:56;;;;;;;16.73;9.25;;;16.50;54.40;;;;;;7783760;22;20098;-78
2023/12/30 11:16:57;;;;;;;13.50;6.97;;;17.00;52.80;;;;;;7783185;22;20029;-79
2023/12/30 11:20:25;;;;;;;18.92;8.63;;;17.10;51.60;;;;;;7811555;22;20092;-79
2023/12/30 11:23:27;;;;;;;20.63;11.52;;;17.10;51.40;;;;;;7783748;22;19995;-76
2023/12/30 11:26:33;;;;;;;21.02;8.95;;;17.30;51.00;;;;;;7811543;22;20006;-76
2023/12/30 11:29:36;;;;;;;21.73;10.05;;;17.80;50.40;;;;;;7784641;22;20003;-76
2023/12/30 11:32:37;;;;;;;19.60;9.30;;;18.30;49.60;;;;;;7782902;22;20007;-76
2023/12/30 11:35:38;;;;;;;25.80;10.52;;;18.80;48.70;;;;;;7757339;22;20256;-76
2023/12/30 11:38:46;;;;;;;18.77;9.23;;;19.20;47.90;;;;;;7810732;22;20075;-74
2023/12/30 11:41:49;;;;;;;24.23;9.68;;;19.60;47.20;;;;;;7784192;22;20011;-76
2023/12/30 11:44:50;;;;;;;23.90;11.23;;;19.80;46.20;;;;;;7782856;22;19999;-75
2023/12/30 11:47:51;;;;;;;17.17;9.20;;;19.40;46.50;;;;;;7783600;22;20000;-75
2023/12/30 11:50:53;;;;;;;22.80;10.25;;;18.60;47.30;;;;;;7811566;22;20056;-76
2023/12/30 11:53:54;;;;;;;18.45;9.13;;;17.90;48.70;;;;;;7758836;22;20110;-77
2023/12/30 11:56:55;;;;;;;18.88;10.18;;;17.20;49.80;;;;;;7783072;22;20044;-77
2023/12/30 11:59:56;;;;;;;16.10;8.18;;;16.60;51.00;;;;;;7782374;22;20090;-75
2023/12/30 12:02:57;;;;;;;20.45;9.38;;;16.10;51.90;;;;;;7732499;22;20003;-75
2023/12/30 12:05:59;;;;;;;17.17;8.88;;;15.60;52.80;;;;;;7757574;22;20029;-76
2023/12/30 12:09:04;;;;;;;15.25;8.80;;;15.20;53.60;;;;;;7810829;22;20390;-76
2023/12/30 12:12:05;;;;;;;16.98;7.90;;;14.90;54.30;;;;;;7759093;22;20030;-77
2023/12/30 12:15:08;;;;;;;16.77;7.82;;;14.60;54.80;;;;;;7758198;22;20035;-75
2023/12/30 12:18:09;;;;;;;19.55;8.40;;;14.30;55.40;;;;;;7811824;22;20010;-77
2023/12/30 12:21:13;;;;;;;21.90;10.88;;;14.10;56.10;;;;;;7757266;22;20416;-75
2023/12/30 12:24:15;;;;;;;25.20;10.32;;;13.90;56.60;;;;;;7757052;22;20067;-78
2023/12/30 12:27:24;;;;;;;21.50;8.73;;;13.70;57.20;;;;;;7810936;22;20072;-75
2023/12/30 12:30:25;;;;;;;23.50;9.67;;;13.60;57.60;;;;;;7782680;22;20003;-75
2023/12/30 12:33:25;;;;;;;16.35;7.68;;;13.60;57.90;;;;;;7757363;22;20065;-75
2023/12/30 12:36:26;;;;;;;16.50;9.07;;;13.50;58.20;;;;;;7757331;22;20053;-74
2023/12/30 12:39:27;;;;;;;16.33;7.55;;;13.40;58.40;;;;;;7809539;22;20103;-77
2023/12/30 12:42:28;;;;;;;28.20;11.30;;;13.40;58.60;;;;;;7782373;22;20046;-74
2023/12/30 12:45:29;;;;;;;19.33;7.57;;;13.40;58.70;;;;;;7781533;22;20060;-76
2023/12/30 12:48:30;;;;;;;21.33;8.60;;;13.40;58.80;;;;;;7809082;22;20309;-73
2023/12/30 12:51:32;;;;;;;13.70;6.47;;;13.40;58.90;;;;;;7783577;22;20004;-74
2023/12/30 12:54:33;;;;;;;33.65;12.45;;;13.40;59.10;;;;;;7810532;22;20484;-75
2023/12/30 12:57:36;;;;;;;21.17;10.05;;;13.40;59.20;;;;;;7781588;22;20091;-77
2023/12/30 13:00:37;;;;;;;21.27;9.70;;;13.40;59.30;;;;;;7809156;22;20137;-77
2023/12/30 13:03:39;;;;;;;21.58;9.32;;;13.40;59.30;;;;;;7756050;22;20224;-75
2023/12/30 13:06:41;;;;;;;13.88;7.32;;;13.50;59.50;;;;;;7755990;22;20030;-75
2023/12/30 13:09:53;;;;;;;16.95;8.00;;;13.50;59.50;;;;;;7809725;22;20086;-75
2023/12/30 13:12:57;;;;;;;19.33;8.75;;;13.50;59.60;;;;;;7778747;22;20006;-75
2023/12/30 13:15:59;;;;;;;27.10;9.40;;;13.60;59.70;;;;;;7781097;22;20436;-74
2023/12/30 13:19:00;;;;;;;19.63;7.45;;;13.60;59.70;;;;;;7755997;22;20122;-74
2023/12/30 13:22:06;;;;;;;17.67;7.72;;;13.60;59.80;;;;;;7781186;22;20011;-76
2023/12/30 13:25:09;;;;;;;24.27;10.10;;;13.60;59.90;;;;;;7781662;22;20080;-74
2023/12/30 13:28:10;;;;;;;19.50;8.52;;;13.70;60.00;;;;;;7755839;22;20006;-75
2023/12/30 13:31:12;;;;;;;18.98;7.88;;;13.70;60.00;;;;;;7781707;22;20080;-75
2023/12/30 13:34:14;;;;;;;21.27;8.55;;;13.70;60.00;;;;;;7808648;22;20299;-76
2023/12/30 13:37:16;;;;;;;16.02;7.53;;;13.80;60.00;;;;;;7781383;22;20062;-78
2023/12/30 13:40:19;;;;;;;16.73;8.35;;;13.80;60.00;;;;;;7781942;22;20015;-73
2023/12/30 13:43:26;;;;;;;21.25;8.88;;;13.80;59.90;;;;;;7782099;22;20073;-75
2023/12/30 13:46:56;;;;;;;15.20;7.10;;;13.80;59.80;;;;;;7781634;22;19999;-75
2023/12/30 13:50:18;;;;;;;21.98;7.15;;;13.80;59.90;;;;;;7808988;22;20310;-74
2023/12/30 13:53:20;;;;;;;14.03;6.37;;;13.80;59.90;;;;;;7781318;22;20015;-76
2023/12/30 13:56:23;;;;;;;11.38;7.15;;;13.80;60.00;;;;;;7781923;22;20030;-75
2023/12/30 13:59:25;;;;;;;12.60;6.45;;;13.80;60.00;;;;;;7807989;22;20492;-75
2023/12/30 14:02:29;;;;;;;10.30;6.28;;;13.80;60.00;;;;;;7809026;22;20015;-76
2023/12/30 14:05:36;;;;;;;15.35;6.22;;;13.90;60.00;;;;;;7781147;22;20010;-75
2023/12/30 14:08:42;;;;;;;13.35;6.47;;;13.90;60.00;;;;;;7755813;22;20082;-74
2023/12/30 14:11:57;;;;;;;13.70;5.80;;;13.90;59.90;;;;;;7807787;22;20003;-75
2023/12/30 14:15:05;;;;;;;12.90;6.35;;;13.90;59.80;;;;;;7804067;22;20072;-76
2023/12/30 14:18:08;;;;;;;22.40;8.13;;;14.00;59.80;;;;;;7808581;22;20002;-75
2023/12/30 14:21:09;;;;;;;12.40;6.97;;;14.00;59.80;;;;;;7781535;22;20035;-77
2023/12/30 14:24:11;;;;;;;16.13;7.90;;;14.00;59.80;;;;;;7757358;22;20000;-76
2023/12/30 14:27:13;;;;;;;14.68;7.70;;;14.00;59.80;;;;;;7783671;22;19996;-76
2023/12/30 14:30:17;;;;;;;21.67;8.32;;;14.00;59.90;;;;;;7758342;22;20003;-77
2023/12/30 14:33:56;;;;;;;17.98;8.00;;;14.10;60.00;;;;;;7810809;22;20086;-76
2023/12/30 14:37:22;;;;;;;19.60;8.35;;;14.10;60.00;;;;;;7788915;22;20015;-79
2023/12/30 14:40:24;;;;;;;23.25;9.05;;;14.10;59.90;;;;;;7781996;22;20038;-78
2023/12/30 14:43:25;;;;;;;18.40;7.85;;;14.10;59.90;;;;;;7783822;22;20417;-75
2023/12/30 14:46:26;;;;;;;31.17;9.18;;;14.10;60.00;;;;;;7810512;22;20144;-76
2023/12/30 14:49:28;;;;;;;23.33;8.77;;;14.20;60.00;;;;;;7782608;22;20022;-77
2023/12/30 14:52:29;;;;;;;17.25;8.05;;;14.20;59.90;;;;;;7758585;22;20000;-75
2023/12/30 14:55:30;;;;;;;13.93;8.15;;;14.20;59.90;;;;;;7757459;22;20425;-77
2023/12/30 14:58:31;;;;;;;13.90;6.63;;;14.20;59.90;;;;;;7783878;22;20090;-75
2023/12/30 15:01:32;;;;;;;18.65;8.13;;;14.20;59.90;;;;;;7757045;22;20022;-75
2023/12/30 15:04:32;;;;;;;19.25;8.40;;;14.30;59.90;;;;;;7783705;22;19999;-77
2023/12/30 15:07:33;;;;;;;23.55;9.18;;;14.20;59.90;;;;;;7785682;22;20007;-77
2023/12/30 15:10:34;;;;;;;23.00;9.20;;;14.20;59.90;;;;;;7785011;22;20003;-77
2023/12/30 15:13:35;;;;;;;11.05;6.25;;;14.20;60.00;;;;;;7783322;22;20098;-76
2023/12/30 15:16:37;;;;;;;13.48;6.57;;;14.20;60.00;;;;;;7783294;22;20336;-75
2023/12/30 15:19:38;;;;;;;14.65;6.50;;;14.20;60.00;;;;;;7810470;22;20001;-74
2023/12/30 15:22:40;;;;;;;15.45;7.07;;;14.20;60.10;;;;;;7782749;22;20510;-73
2023/12/30 15:25:43;;;;;;;14.95;6.65;;;14.20;60.20;;;;;;7782501;22;20076;-73
2023/12/30 15:28:43;;;;;;;19.48;8.30;;;14.10;60.20;;;;;;7731901;22;20007;-75
2023/12/30 15:31:44;;;;;;;16.27;7.70;;;14.10;60.30;;;;;;7781274;22;20735;-75
2023/12/30 15:34:45;;;;;;;14.98;7.15;;;14.10;60.30;;;;;;7809387;22;20014;-76
2023/12/30 15:37:48;;;;;;;15.32;7.25;;;14.10;60.30;;;;;;7782161;22;20030;-76